Time;durP1;ratioP1;P1;durP2;ratioP2;P2;SDS_P1;SDS_P2;PMS_P1;PMS_P2;Temp;Humidity;BMP_temperature;BMP_pressure;BME280_temperature;BME280_humidity;BME280_pressure;Samples;Min_cycle;Max_cycle;Signal;HPM_P1;HPM_P2
2023/11/27 00:02:15;;;;;;;1.85;1.30;;;15.00;67.40;;;;;;5080724;28;20085;-66
2023/11/27 00:04:41;;;;;;;1.60;1.15;;;15.00;67.10;;;;;;5093976;28;20104;-67
2023/11/27 00:07:06;;;;;;;3.75;1.70;;;15.00;66.80;;;;;;5099120;28;20028;-66
2023/11/27 00:09:32;;;;;;;3.85;1.45;;;15.00;66.60;;;;;;5088816;28;20092;-66
2023/11/27 00:12:02;;;;;;;2.88;1.25;;;15.00;67.00;;;;;;5100373;28;20094;-66
2023/11/27 00:14:28;;;;;;;2.10;1.42;;;15.00;66.60;;;;;;5103532;28;20502;-66
2023/11/27 00:16:53;;;;;;;2.10;1.67;;;15.00;66.80;;;;;;5100460;28;20044;-67
2023/11/27 00:19:18;;;;;;;1.85;1.10;;;15.00;66.50;;;;;;5105411;28;20015;-61
2023/11/27 00:21:44;;;;;;;2.97;1.25;;;15.10;66.60;;;;;;5100703;28;20032;-66
2023/11/27 00:24:09;;;;;;;2.45;1.13;;;15.10;66.80;;;;;;5100156;28;20418;-66
2023/11/27 00:26:35;;;;;;;2.17;0.98;;;15.10;66.70;;;;;;5100469;28;20096;-66
2023/11/27 00:29:01;;;;;;;1.75;1.08;;;15.10;66.70;;;;;;5096168;28;20030;-65
2023/11/27 00:31:27;;;;;;;1.25;1.10;;;15.10;66.50;;;;;;5104960;28;20519;-66
2023/11/27 00:33:52;;;;;;;1.77;1.10;;;15.10;66.40;;;;;;5096204;28;20498;-67
2023/11/27 00:36:18;;;;;;;2.40;1.00;;;15.10;66.90;;;;;;5100187;28;20426;-65
2023/11/27 00:38:43;;;;;;;1.50;0.90;;;15.10;66.60;;;;;;5101404;28;20035;-66
2023/11/27 00:41:14;;;;;;;1.10;0.80;;;15.10;66.60;;;;;;5100679;28;20111;-64
2023/11/27 00:43:41;;;;;;;4.55;1.20;;;15.10;66.50;;;;;;5100284;28;20046;-64
2023/11/27 00:46:06;;;;;;;3.65;1.20;;;15.10;67.10;;;;;;5081782;28;20043;-66
2023/11/27 00:48:32;;;;;;;2.83;1.23;;;15.20;66.80;;;;;;5100567;28;20579;-65
2023/11/27 00:50:57;;;;;;;1.70;1.42;;;15.20;66.60;;;;;;5100777;28;20059;-64
2023/11/27 00:53:23;;;;;;;2.83;1.23;;;15.20;66.60;;;;;;5101732;28;20032;-65
2023/11/27 00:55:48;;;;;;;1.27;0.90;;;15.20;66.60;;;;;;5099193;28;20044;-65
2023/11/27 00:58:14;;;;;;;1.33;1.00;;;15.20;66.90;;;;;;5098263;28;20035;-64
2023/11/27 01:00:39;;;;;;;2.47;1.30;;;15.20;66.40;;;;;;5097961;28;20070;-61
2023/11/27 01:03:05;;;;;;;1.17;0.90;;;15.20;66.40;;;;;;5091174;28;20456;-65
2023/11/27 01:05:30;;;;;;;1.05;0.80;;;15.20;66.70;;;;;;5092893;28;20439;-65
2023/11/27 01:07:56;;;;;;;2.03;1.00;;;15.20;66.40;;;;;;5102808;28;20122;-65
2023/11/27 01:10:21;;;;;;;1.48;1.00;;;15.20;66.70;;;;;;5095820;28;20035;-64
2023/11/27 01:12:47;;;;;;;0.88;0.80;;;15.20;66.60;;;;;;5102561;28;20602;-65
2023/11/27 01:15:13;;;;;;;1.33;1.00;;;15.20;66.50;;;;;;5097340;28;20101;-65
2023/11/27 01:17:39;;;;;;;1.40;0.95;;;15.20;66.60;;;;;;5091611;28;20032;-64
2023/11/27 01:20:07;;;;;;;1.33;0.82;;;15.20;66.00;;;;;;5097112;28;20493;-65
2023/11/27 01:22:39;;;;;;;0.93;0.80;;;15.20;66.10;;;;;;5098587;28;20089;-62
2023/11/27 01:25:06;;;;;;;1.38;1.10;;;15.20;66.20;;;;;;5092319;28;20494;-64
2023/11/27 01:27:32;;;;;;;1.13;0.80;;;15.20;66.00;;;;;;5092878;28;20043;-63
2023/11/27 01:29:57;;;;;;;1.85;1.10;;;15.30;66.10;;;;;;5103833;28;20516;-64
2023/11/27 01:32:25;;;;;;;0.80;0.70;;;15.20;65.90;;;;;;5098901;28;20051;-64
2023/11/27 01:34:51;;;;;;;0.82;0.77;;;15.30;66.10;;;;;;5100614;28;20062;-64
2023/11/27 01:37:17;;;;;;;2.15;0.85;;;15.20;66.10;;;;;;5100079;28;20097;-63
2023/11/27 01:39:43;;;;;;;0.85;0.80;;;15.20;66.00;;;;;;5101986;28;20032;-66
2023/11/27 01:42:09;;;;;;;1.58;0.88;;;15.20;66.10;;;;;;5096756;28;20054;-62
2023/11/27 01:44:38;;;;;;;1.00;0.82;;;15.20;66.10;;;;;;5094859;28;20028;-64
2023/11/27 01:47:04;;;;;;;1.27;1.00;;;15.20;65.90;;;;;;5099805;28;20028;-64
2023/11/27 01:49:32;;;;;;;1.15;0.80;;;15.30;66.00;;;;;;5099561;28;20023;-65
2023/11/27 01:51:58;;;;;;;1.25;1.02;;;15.20;65.90;;;;;;5099159;28;20031;-64
2023/11/27 01:54:25;;;;;;;1.00;1.00;;;15.20;65.90;;;;;;5092768;28;20531;-65
2023/11/27 01:56:52;;;;;;;0.70;0.65;;;15.20;66.10;;;;;;5098381;28;20075;-60
2023/11/27 01:59:19;;;;;;;1.13;0.73;;;15.30;66.00;;;;;;5089530;28;20529;-65
2023/11/27 02:01:45;;;;;;;1.15;0.90;;;15.30;65.80;;;;;;5097885;27;20611;-64
2023/11/27 02:04:11;;;;;;;1.05;0.70;;;15.30;65.90;;;;;;5096399;28;20077;-66
2023/11/27 02:06:36;;;;;;;0.73;0.70;;;15.30;65.80;;;;;;5093924;28;20059;-62
2023/11/27 02:09:02;;;;;;;0.60;0.60;;;15.30;65.90;;;;;;5096863;28;20048;-65
2023/11/27 02:11:28;;;;;;;0.88;0.80;;;15.30;65.90;;;;;;5081707;28;20050;-65
2023/11/27 02:13:53;;;;;;;1.58;0.85;;;15.30;65.90;;;;;;5098521;28;20139;-66
2023/11/27 02:16:21;;;;;;;8.10;1.00;;;15.30;66.50;;;;;;5096637;28;20641;-64
2023/11/27 02:18:46;;;;;;;12.50;1.30;;;15.50;66.70;;;;;;5098371;28;20258;-65
2023/11/27 02:21:12;;;;;;;6.40;1.10;;;15.50;66.00;;;;;;5096237;28;20031;-62
2023/11/27 02:23:37;;;;;;;5.75;1.50;;;15.50;65.90;;;;;;5098403;28;20016;-66
2023/11/27 02:26:06;;;;;;;4.40;0.88;;;15.40;66.30;;;;;;5094375;28;20110;-64
2023/11/27 02:28:32;;;;;;;4.07;1.02;;;15.40;66.10;;;;;;5095633;28;20015;-66
2023/11/27 02:30:58;;;;;;;5.32;0.88;;;15.40;66.10;;;;;;5094833;28;20122;-65
2023/11/27 02:33:25;;;;;;;1.83;0.80;;;15.40;66.40;;;;;;5098400;28;20035;-66
2023/11/27 02:35:51;;;;;;;5.53;0.90;;;15.30;66.20;;;;;;5097765;28;20056;-66
2023/11/27 02:38:17;;;;;;;2.50;0.77;;;15.30;66.10;;;;;;5096333;28;20028;-67
2023/11/27 02:40:43;;;;;;;1.67;0.80;;;15.30;66.20;;;;;;5098317;28;20034;-61
2023/11/27 02:43:09;;;;;;;2.75;0.80;;;15.30;65.90;;;;;;5094950;28;20028;-64
2023/11/27 02:45:35;;;;;;;1.63;0.85;;;15.30;66.20;;;;;;5092380;28;20111;-65
2023/11/27 02:48:01;;;;;;;1.05;0.60;;;15.30;66.00;;;;;;5096791;28;20099;-66
2023/11/27 02:50:27;;;;;;;3.22;0.73;;;15.40;66.10;;;;;;5094143;28;20548;-59
2023/11/27 02:52:52;;;;;;;4.13;0.80;;;15.40;66.10;;;;;;5095111;28;20040;-65
2023/11/27 02:55:19;;;;;;;0.68;0.60;;;15.40;66.00;;;;;;5097504;28;20038;-65
2023/11/27 02:57:46;;;;;;;3.70;0.70;;;15.40;65.90;;;;;;5089570;28;20239;-65
2023/11/27 03:00:12;;;;;;;1.00;0.60;;;15.40;65.80;;;;;;5090398;28;20043;-65
2023/11/27 03:02:42;;;;;;;1.25;0.82;;;15.40;65.70;;;;;;5096911;28;20045;-66
2023/11/27 03:05:09;;;;;;;0.50;0.50;;;15.40;65.60;;;;;;5096580;28;20032;-65
2023/11/27 03:07:37;;;;;;;0.98;0.60;;;15.40;65.70;;;;;;5078537;28;20039;-64
2023/11/27 03:10:03;;;;;;;0.55;0.52;;;15.40;65.60;;;;;;5093155;28;20039;-64
2023/11/27 03:12:29;;;;;;;1.75;0.60;;;15.40;65.80;;;;;;5079250;28;20043;-62
2023/11/27 03:14:55;;;;;;;1.17;0.70;;;15.40;66.00;;;;;;5098732;28;20233;-63
2023/11/27 03:17:23;;;;;;;0.60;0.57;;;15.40;65.80;;;;;;5076301;28;20048;-64
2023/11/27 03:19:52;;;;;;;0.40;0.40;;;15.40;66.00;;;;;;5093104;28;20023;-65
2023/11/27 03:22:18;;;;;;;0.73;0.45;;;15.40;65.90;;;;;;5093948;28;20054;-63
2023/11/27 03:24:43;;;;;;;0.63;0.50;;;15.40;65.70;;;;;;5098880;28;20060;-64
2023/11/27 03:27:09;;;;;;;0.75;0.50;;;15.40;65.70;;;;;;5095580;28;20105;-64
2023/11/27 03:29:35;;;;;;;2.92;0.70;;;15.40;65.70;;;;;;5100549;28;20489;-66
2023/11/27 03:32:00;;;;;;;2.45;0.50;;;15.40;66.00;;;;;;5101085;28;20059;-63
2023/11/27 03:34:26;;;;;;;0.88;0.40;;;15.40;66.20;;;;;;5100210;28;20036;-64
2023/11/27 03:36:52;;;;;;;1.17;0.70;;;15.40;66.00;;;;;;5098877;28;20053;-66
2023/11/27 03:39:17;;;;;;;0.50;0.32;;;15.40;66.20;;;;;;5101219;28;20074;-66
2023/11/27 03:41:42;;;;;;;0.55;0.55;;;15.40;66.30;;;;;;5095342;28;20053;-66
2023/11/27 03:44:08;;;;;;;0.73;0.40;;;15.30;66.20;;;;;;5095177;28;20027;-66
2023/11/27 03:46:34;;;;;;;2.25;0.57;;;15.40;66.20;;;;;;5075248;28;20493;-66
2023/11/27 03:49:00;;;;;;;0.30;0.30;;;15.30;66.30;;;;;;5094047;28;20028;-62
2023/11/27 03:51:26;;;;;;;1.88;0.70;;;15.40;66.50;;;;;;5095368;28;20058;-64
2023/11/27 03:53:52;;;;;;;2.42;0.57;;;15.40;66.10;;;;;;5098478;28;20020;-64
2023/11/27 03:56:18;;;;;;;3.53;0.52;;;15.40;66.00;;;;;;5093037;28;20534;-63
2023/11/27 03:58:43;;;;;;;2.50;0.63;;;15.40;65.90;;;;;;5076266;28;20023;-64
2023/11/27 04:01:11;;;;;;;2.70;0.60;;;15.40;65.80;;;;;;5092207;28;20020;-64
2023/11/27 04:03:39;;;;;;;0.88;0.40;;;15.40;65.70;;;;;;5098936;28;20506;-64
2023/11/27 04:06:06;;;;;;;0.40;0.40;;;15.40;65.80;;;;;;5100762;28;20138;-61
2023/11/27 04:08:31;;;;;;;1.00;0.50;;;15.40;65.70;;;;;;5062724;28;20020;-64
2023/11/27 04:10:57;;;;;;;1.65;0.30;;;15.40;65.80;;;;;;5105497;28;20028;-64
2023/11/27 04:13:22;;;;;;;2.95;0.65;;;15.40;65.60;;;;;;5101530;28;20085;-64
2023/11/27 04:15:48;;;;;;;0.25;0.22;;;15.40;65.80;;;;;;5094424;28;20035;-64
2023/11/27 04:18:13;;;;;;;0.60;0.40;;;15.40;65.60;;;;;;5099481;28;20043;-63
2023/11/27 04:20:39;;;;;;;0.57;0.57;;;15.40;65.80;;;;;;5102255;28;20024;-64
2023/11/27 04:23:05;;;;;;;0.30;0.30;;;15.40;65.50;;;;;;5080944;28;20027;-65
2023/11/27 04:25:30;;;;;;;2.28;0.40;;;15.40;65.80;;;;;;5102388;28;20541;-64
2023/11/27 04:27:56;;;;;;;0.98;0.50;;;15.40;65.40;;;;;;5100900;28;20058;-64
2023/11/27 04:30:21;;;;;;;0.43;0.35;;;15.40;65.40;;;;;;5101778;28;20031;-63
2023/11/27 04:32:47;;;;;;;1.10;0.32;;;15.40;65.40;;;;;;5078911;28;20040;-65
2023/11/27 04:35:13;;;;;;;0.40;0.30;;;15.50;65.40;;;;;;5068632;28;20040;-63
2023/11/27 04:37:39;;;;;;;2.33;0.40;;;15.50;65.40;;;;;;5098004;28;20055;-64
2023/11/27 04:40:10;;;;;;;0.30;0.30;;;15.50;65.40;;;;;;5100906;28;20569;-64
2023/11/27 04:42:38;;;;;;;0.60;0.40;;;15.50;65.40;;;;;;5102342;28;20038;-63
2023/11/27 04:45:07;;;;;;;0.60;0.38;;;15.50;65.40;;;;;;5096267;28;20032;-61
2023/11/27 04:47:33;;;;;;;0.43;0.30;;;15.50;65.20;;;;;;5094661;28;20032;-62
2023/11/27 04:49:58;;;;;;;0.40;0.20;;;15.50;65.40;;;;;;5080031;28;20019;-62
2023/11/27 04:52:24;;;;;;;1.38;0.30;;;15.50;65.50;;;;;;5078036;28;20080;-61
2023/11/27 04:54:49;;;;;;;1.48;0.30;;;15.50;65.50;;;;;;5099510;28;20084;-61
2023/11/27 04:57:15;;;;;;;1.85;0.40;;;15.50;65.40;;;;;;5098042;28;20065;-61
2023/11/27 04:59:41;;;;;;;4.55;0.60;;;15.50;65.80;;;;;;5100793;28;20058;-63
2023/11/27 05:02:06;;;;;;;2.92;0.45;;;15.50;66.00;;;;;;5081749;28;20513;-64
2023/11/27 05:04:33;;;;;;;1.13;0.50;;;15.50;65.60;;;;;;5076794;28;20165;-61
2023/11/27 05:07:00;;;;;;;1.80;0.50;;;15.50;65.40;;;;;;5095632;28;20089;-61
2023/11/27 05:09:26;;;;;;;4.18;0.50;;;15.50;66.00;;;;;;5090575;28;20190;-67
2023/11/27 05:11:52;;;;;;;1.35;0.30;;;15.50;65.40;;;;;;5094027;28;20035;-64
2023/11/27 05:14:17;;;;;;;1.58;0.40;;;15.50;65.40;;;;;;5075151;28;20072;-64
2023/11/27 05:16:43;;;;;;;1.48;0.30;;;15.50;65.30;;;;;;5092965;28;20621;-63
2023/11/27 05:19:09;;;;;;;0.63;0.40;;;15.50;65.20;;;;;;5098669;28;20072;-64
2023/11/27 05:21:34;;;;;;;0.30;0.30;;;15.50;65.30;;;;;;5095076;28;20104;-64
2023/11/27 05:24:00;;;;;;;0.95;0.40;;;15.50;65.10;;;;;;5095932;28;20039;-65
2023/11/27 05:26:26;;;;;;;1.00;0.40;;;15.50;65.40;;;;;;5099890;28;20434;-64
2023/11/27 05:28:52;;;;;;;2.30;0.35;;;15.50;65.30;;;;;;5094729;28;20032;-64
2023/11/27 05:31:18;;;;;;;0.52;0.40;;;15.50;65.30;;;;;;5098083;28;21929;-64
2023/11/27 05:33:44;;;;;;;0.28;0.22;;;15.50;65.20;;;;;;5083559;28;20293;-62
2023/11/27 05:36:09;;;;;;;0.40;0.38;;;15.50;65.20;;;;;;5097027;28;20034;-64
2023/11/27 05:38:35;;;;;;;0.25;0.25;;;15.50;65.30;;;;;;5099115;28;20091;-64
2023/11/27 05:41:01;;;;;;;0.28;0.25;;;15.50;65.40;;;;;;5083718;28;20108;-65
2023/11/27 05:43:27;;;;;;;8.75;0.75;;;15.50;65.20;;;;;;5079678;28;20433;-64
2023/11/27 05:45:53;;;;;;;0.75;0.45;;;15.50;65.70;;;;;;5093106;28;20031;-63
2023/11/27 05:48:19;;;;;;;4.85;1.00;;;15.50;65.20;;;;;;5096206;28;20024;-63
2023/11/27 05:50:46;;;;;;;4.95;0.80;;;15.50;65.20;;;;;;5074719;28;20025;-61
2023/11/27 05:53:14;;;;;;;1.98;0.30;;;15.50;65.30;;;;;;5078901;28;20095;-63
2023/11/27 05:55:40;;;;;;;0.73;0.35;;;15.50;65.20;;;;;;5098645;28;20096;-63
2023/11/27 05:58:08;;;;;;;0.45;0.30;;;15.50;65.30;;;;;;5100215;28;20065;-63
2023/11/27 06:00:34;;;;;;;0.17;0.13;;;15.50;65.10;;;;;;5097633;28;20020;-64
2023/11/27 06:02:59;;;;;;;7.53;0.85;;;15.50;65.20;;;;;;5078290;28;20039;-64
2023/11/27 06:05:25;;;;;;;5.28;0.95;;;15.80;65.00;;;;;;5095631;28;20028;-64
2023/11/27 06:07:51;;;;;;;3.67;0.40;;;15.80;64.00;;;;;;5097178;28;20047;-61
2023/11/27 06:10:17;;;;;;;2.92;0.45;;;15.80;64.00;;;;;;5083573;28;20059;-63
2023/11/27 06:12:43;;;;;;;3.75;0.43;;;15.70;64.00;;;;;;5093281;28;20075;-63
2023/11/27 06:15:13;;;;;;;6.10;2.53;;;15.60;63.90;;;;;;5094771;28;20028;-72
2023/11/27 06:17:40;;;;;;;7.40;3.65;;;15.70;63.70;;;;;;5081053;28;20073;-71
2023/11/27 06:20:09;;;;;;;9.40;2.88;;;16.50;60.40;;;;;;5094776;28;20038;-66
2023/11/27 06:22:36;;;;;;;8.68;2.85;;;17.10;59.00;;;;;;5093458;28;20406;-63
2023/11/27 06:25:02;;;;;;;6.65;3.17;;;17.00;58.80;;;;;;5077962;28;20027;-64
2023/11/27 06:27:27;;;;;;;6.13;2.22;;;16.50;60.00;;;;;;5095194;28;20085;-64
2023/11/27 06:29:53;;;;;;;3.50;1.85;;;16.20;61.00;;;;;;5095526;28;20036;-62
2023/11/27 06:32:20;;;;;;;8.15;1.52;;;16.00;61.60;;;;;;5096604;28;20079;-66
2023/11/27 06:34:46;;;;;;;3.83;1.50;;;15.80;61.80;;;;;;5095720;28;20139;-65
2023/11/27 06:37:12;;;;;;;3.28;1.30;;;15.70;62.00;;;;;;5098623;28;20110;-65
2023/11/27 06:39:37;;;;;;;4.38;1.48;;;15.60;62.20;;;;;;5100073;28;20585;-62
2023/11/27 06:42:03;;;;;;;2.63;1.30;;;15.50;62.20;;;;;;5090789;28;20088;-65
2023/11/27 06:44:28;;;;;;;1.58;0.88;;;15.50;62.30;;;;;;5094793;28;20046;-65
2023/11/27 06:46:54;;;;;;;3.22;1.00;;;15.40;62.40;;;;;;5098270;28;20087;-67
2023/11/27 06:49:20;;;;;;;1.42;1.25;;;15.40;62.20;;;;;;5097187;28;20367;-66
2023/11/27 06:51:46;;;;;;;2.40;1.15;;;15.40;62.60;;;;;;5097688;28;20043;-66
2023/11/27 06:54:11;;;;;;;1.90;1.10;;;15.30;62.30;;;;;;5103259;28;20457;-67
2023/11/27 06:56:37;;;;;;;2.38;1.33;;;15.30;62.70;;;;;;5102676;28;20084;-66
2023/11/27 06:59:03;;;;;;;2.03;1.48;;;15.30;62.80;;;;;;5095946;28;20039;-66
2023/11/27 07:01:29;;;;;;;3.03;2.00;;;15.20;62.70;;;;;;5100338;28;20031;-65
2023/11/27 07:03:55;;;;;;;2.75;1.75;;;15.20;62.70;;;;;;5093465;28;20624;-66
2023/11/27 07:06:21;;;;;;;4.72;1.95;;;15.20;62.60;;;;;;5097012;28;20540;-65
2023/11/27 07:08:47;;;;;;;3.03;1.85;;;15.20;62.90;;;;;;5098683;28;20043;-67
2023/11/27 07:11:12;;;;;;;2.30;1.35;;;15.20;63.20;;;;;;5095452;28;20019;-65
2023/11/27 07:13:38;;;;;;;2.30;1.80;;;15.20;62.60;;;;;;5091089;28;20036;-65
2023/11/27 07:16:04;;;;;;;2.90;2.13;;;15.10;62.50;;;;;;5095576;28;20128;-66
2023/11/27 07:18:29;;;;;;;2.17;1.55;;;15.10;62.60;;;;;;5092010;28;20509;-65
2023/11/27 07:20:57;;;;;;;1.75;1.48;;;15.10;62.90;;;;;;5099717;28;20028;-65
2023/11/27 07:23:23;;;;;;;3.05;1.40;;;15.10;62.70;;;;;;5080281;28;20050;-66
2023/11/27 07:25:49;;;;;;;1.80;1.50;;;15.10;62.30;;;;;;5096031;28;20129;-66
2023/11/27 07:28:15;;;;;;;2.13;1.55;;;15.10;62.70;;;;;;5097126;28;20044;-65
2023/11/27 07:30:41;;;;;;;1.65;1.38;;;15.00;62.20;;;;;;5094310;28;20062;-63
2023/11/27 07:33:06;;;;;;;1.88;1.10;;;15.10;62.70;;;;;;5093933;28;20769;-66
2023/11/27 07:35:32;;;;;;;1.27;1.17;;;15.00;62.40;;;;;;5095968;28;20518;-66
2023/11/27 07:37:57;;;;;;;1.50;1.27;;;15.00;62.50;;;;;;5096600;28;20039;-66
2023/11/27 07:40:23;;;;;;;4.15;1.60;;;15.00;62.90;;;;;;5093048;28;20036;-66
2023/11/27 07:42:49;;;;;;;2.70;1.95;;;15.00;62.90;;;;;;5089455;28;20036;-67
2023/11/27 07:45:14;;;;;;;3.80;2.67;;;15.00;62.90;;;;;;5095271;28;20536;-67
2023/11/27 07:47:40;;;;;;;6.88;3.35;;;15.00;62.80;;;;;;5078408;28;20095;-67
2023/11/27 07:50:06;;;;;;;18.83;7.82;;;15.00;63.00;;;;;;5076611;28;20434;-70
2023/11/27 07:52:32;;;;;;;29.70;7.20;;;15.40;64.30;;;;;;5096446;28;20152;-69
2023/11/27 07:54:58;;;;;;;20.17;5.95;;;15.50;63.20;;;;;;5093761;28;20762;-70
2023/11/27 07:57:24;;;;;;;20.90;6.20;;;15.40;62.90;;;;;;5098178;28;20498;-70
2023/11/27 07:59:49;;;;;;;27.00;6.40;;;15.30;63.20;;;;;;5097392;28;20046;-71
2023/11/27 08:02:15;;;;;;;20.10;6.18;;;15.20;63.20;;;;;;5097194;28;20081;-70
2023/11/27 08:04:41;;;;;;;21.67;6.82;;;15.20;63.30;;;;;;5096235;28;20072;-69
2023/11/27 08:07:09;;;;;;;22.23;5.53;;;15.20;63.50;;;;;;5080266;28;20035;-69
2023/11/27 08:09:35;;;;;;;18.27;5.97;;;15.20;63.70;;;;;;5092117;28;20039;-70
2023/11/27 08:12:00;;;;;;;20.08;4.88;;;15.20;63.50;;;;;;5093864;28;20031;-70
2023/11/27 08:14:26;;;;;;;11.57;5.18;;;15.10;63.60;;;;;;5077207;28;20043;-72
2023/11/27 08:16:51;;;;;;;13.95;5.50;;;15.10;63.60;;;;;;5092669;28;20423;-70
2023/11/27 08:19:17;;;;;;;13.82;5.80;;;15.10;63.60;;;;;;5095546;28;20032;-69
2023/11/27 08:21:45;;;;;;;14.98;5.22;;;15.20;63.70;;;;;;5100074;28;20032;-69
2023/11/27 08:24:14;;;;;;;9.77;4.53;;;15.10;63.70;;;;;;5099892;28;20163;-70
2023/11/27 08:26:41;;;;;;;14.55;5.55;;;15.10;63.70;;;;;;5099676;28;20561;-70
2023/11/27 08:29:07;;;;;;;8.30;4.47;;;15.10;63.80;;;;;;5095165;28;20042;-72
2023/11/27 08:31:33;;;;;;;11.20;4.85;;;15.20;63.90;;;;;;5093999;28;20039;-72
2023/11/27 08:33:59;;;;;;;11.73;4.90;;;15.10;63.80;;;;;;5094083;28;20415;-71
2023/11/27 08:36:25;;;;;;;12.07;4.40;;;15.20;63.80;;;;;;5098942;28;20573;-72
2023/11/27 08:38:55;;;;;;;13.02;4.72;;;15.20;63.80;;;;;;5092081;28;20118;-71
2023/11/27 08:41:21;;;;;;;8.20;4.55;;;15.20;63.90;;;;;;5091430;28;20111;-72
2023/11/27 08:43:47;;;;;;;8.20;4.53;;;15.10;63.90;;;;;;5081261;28;20118;-70
2023/11/27 08:46:16;;;;;;;9.18;4.47;;;15.10;63.90;;;;;;5090387;28;20153;-69
2023/11/27 08:48:42;;;;;;;8.18;3.53;;;15.10;63.90;;;;;;5093392;28;20441;-69
2023/11/27 08:51:09;;;;;;;10.20;4.22;;;15.10;64.00;;;;;;5094804;28;20020;-68
2023/11/27 08:53:34;;;;;;;8.75;4.10;;;15.10;64.00;;;;;;5101725;28;20028;-70
2023/11/27 08:56:00;;;;;;;9.75;4.63;;;15.20;64.00;;;;;;5093627;28;20696;-71
2023/11/27 08:58:26;;;;;;;7.15;3.53;;;15.10;64.00;;;;;;5094572;28;20070;-70
2023/11/27 09:00:52;;;;;;;10.02;3.88;;;15.20;64.00;;;;;;5098399;28;20131;-70
2023/11/27 09:03:18;;;;;;;7.95;4.00;;;15.20;64.00;;;;;;5100764;28;20401;-70
2023/11/27 09:05:45;;;;;;;5.82;3.58;;;15.20;64.00;;;;;;5099333;28;20028;-69
2023/11/27 09:08:13;;;;;;;7.28;3.80;;;15.20;64.00;;;;;;5096341;28;20482;-69
2023/11/27 09:10:39;;;;;;;8.05;3.13;;;15.20;64.00;;;;;;5100057;28;20040;-70
2023/11/27 09:13:06;;;;;;;6.25;3.72;;;15.20;64.10;;;;;;5096791;28;20029;-70
2023/11/27 09:15:33;;;;;;;5.72;3.40;;;15.20;64.00;;;;;;5092691;28;20024;-67
2023/11/27 09:17:59;;;;;;;6.32;3.50;;;15.20;64.10;;;;;;5099799;28;20404;-69
2023/11/27 09:20:25;;;;;;;6.28;3.55;;;15.20;64.10;;;;;;5094984;28;20043;-70
2023/11/27 09:22:52;;;;;;;5.15;2.70;;;15.20;64.10;;;;;;5095389;28;20028;-70
2023/11/27 09:25:18;;;;;;;10.88;3.25;;;15.20;64.10;;;;;;5105708;28;20032;-69
2023/11/27 09:27:43;;;;;;;5.35;3.03;;;15.20;64.10;;;;;;5095064;28;20028;-69
2023/11/27 09:30:10;;;;;;;3.85;2.83;;;15.20;64.20;;;;;;5103266;28;20072;-70
2023/11/27 09:32:36;;;;;;;5.78;3.10;;;15.20;64.20;;;;;;5091760;28;20402;-69
2023/11/27 09:35:04;;;;;;;6.57;2.85;;;15.10;64.20;;;;;;5100617;28;20020;-70
2023/11/27 09:37:32;;;;;;;6.88;2.80;;;15.10;64.10;;;;;;5099113;28;20113;-70
2023/11/27 09:39:59;;;;;;;3.88;2.70;;;15.20;64.20;;;;;;5095650;28;20194;-69
2023/11/27 09:42:32;;;;;;;4.82;2.65;;;15.20;64.30;;;;;;5070795;28;20032;-71
2023/11/27 09:45:00;;;;;;;4.57;2.40;;;15.20;64.20;;;;;;5098524;28;20428;-70
2023/11/27 09:47:27;;;;;;;5.35;2.80;;;15.20;64.20;;;;;;5095589;28;20036;-70
2023/11/27 09:49:57;;;;;;;4.85;2.70;;;15.20;64.20;;;;;;5095246;28;20062;-70
2023/11/27 09:52:31;;;;;;;4.03;2.13;;;15.20;64.20;;;;;;5098977;28;20055;-69
2023/11/27 09:55:03;;;;;;;7.07;2.63;;;15.20;64.20;;;;;;5095968;28;20096;-69
2023/11/27 09:57:30;;;;;;;3.45;1.83;;;15.20;64.30;;;;;;5099598;28;20405;-69
2023/11/27 09:59:56;;;;;;;6.60;2.55;;;15.10;64.20;;;;;;5089127;28;20121;-68
2023/11/27 10:02:25;;;;;;;4.80;3.05;;;15.10;64.20;;;;;;5095755;28;20036;-70
2023/11/27 10:04:51;;;;;;;5.43;2.42;;;15.20;64.30;;;;;;5094976;28;20081;-68
2023/11/27 10:07:16;;;;;;;3.75;1.98;;;15.20;64.40;;;;;;5100560;28;20032;-70
2023/11/27 10:09:44;;;;;;;5.57;2.13;;;15.10;64.30;;;;;;5098079;28;20131;-70
2023/11/27 10:12:10;;;;;;;5.90;2.60;;;15.20;64.40;;;;;;5093233;28;20114;-70
2023/11/27 10:14:35;;;;;;;3.83;2.13;;;15.20;64.40;;;;;;5099522;28;20578;-69
2023/11/27 10:17:03;;;;;;;4.07;1.75;;;15.20;64.40;;;;;;5107873;28;20092;-69
2023/11/27 10:19:29;;;;;;;4.50;2.10;;;15.20;64.40;;;;;;5097184;28;20062;-69
2023/11/27 10:21:56;;;;;;;3.28;2.03;;;15.20;64.40;;;;;;5095113;28;20282;-71
2023/11/27 10:24:21;;;;;;;2.42;1.42;;;15.20;65.10;;;;;;5095863;28;20119;-70
2023/11/27 10:26:47;;;;;;;2.90;1.98;;;15.10;64.40;;;;;;5099993;28;20124;-70
2023/11/27 10:29:25;;;;;;;5.68;2.10;;;15.20;64.50;;;;;;5096429;28;20047;-71
2023/11/27 10:31:58;;;;;;;3.90;1.70;;;15.10;65.10;;;;;;5097794;28;20048;-71
2023/11/27 10:34:26;;;;;;;2.80;1.77;;;15.10;64.50;;;;;;5096073;28;20525;-69
2023/11/27 10:37:00;;;;;;;3.80;2.05;;;15.20;64.60;;;;;;5098041;28;20081;-71
2023/11/27 10:39:32;;;;;;;3.28;1.60;;;15.20;64.60;;;;;;5096414;28;20668;-71
2023/11/27 10:42:00;;;;;;;4.18;1.98;;;15.10;64.50;;;;;;5074849;28;20133;-70
2023/11/27 10:44:28;;;;;;;2.83;2.08;;;15.20;64.50;;;;;;5093031;28;20577;-71
2023/11/27 10:46:55;;;;;;;2.58;1.67;;;15.20;64.60;;;;;;5092783;28;20036;-71
2023/11/27 10:49:22;;;;;;;2.53;1.67;;;15.20;64.50;;;;;;5078451;28;20448;-71
2023/11/27 10:51:50;;;;;;;2.50;1.20;;;15.20;64.60;;;;;;5095806;28;20036;-70
2023/11/27 10:54:17;;;;;;;2.38;1.80;;;15.20;64.50;;;;;;5080515;28;20062;-71
2023/11/27 10:56:47;;;;;;;2.65;1.48;;;15.20;64.50;;;;;;5094271;28;20481;-71
2023/11/27 10:59:13;;;;;;;3.05;1.52;;;15.20;64.50;;;;;;5093895;28;20557;-70
2023/11/27 11:01:42;;;;;;;3.85;2.08;;;15.20;64.50;;;;;;5095705;28;20034;-70
2023/11/27 11:04:22;;;;;;;2.55;1.63;;;15.20;64.50;;;;;;5095079;28;20058;-70
2023/11/27 11:06:54;;;;;;;2.22;1.42;;;15.20;64.50;;;;;;5098511;28;20039;-70
2023/11/27 11:09:24;;;;;;;2.50;1.67;;;15.20;64.50;;;;;;5094881;28;20047;-70
2023/11/27 11:11:50;;;;;;;5.18;1.60;;;15.20;64.50;;;;;;5094674;28;20462;-70
2023/11/27 11:14:19;;;;;;;3.05;1.50;;;15.20;64.50;;;;;;5092304;28;20453;-69
2023/11/27 11:17:08;;;;;;;1.75;1.30;;;15.20;64.50;;;;;;5094163;28;20059;-70
2023/11/27 11:19:50;;;;;;;2.90;1.67;;;15.20;64.50;;;;;;5100749;28;20080;-69
2023/11/27 11:22:30;;;;;;;2.85;1.42;;;15.20;64.40;;;;;;5095355;28;20024;-70
2023/11/27 11:25:13;;;;;;;1.55;1.35;;;15.20;64.40;;;;;;5092332;28;20398;-70
2023/11/27 11:27:54;;;;;;;2.15;1.48;;;15.20;64.50;;;;;;5098037;28;20024;-69
2023/11/27 11:30:21;;;;;;;2.83;1.73;;;15.20;64.40;;;;;;5085357;28;20070;-70
2023/11/27 11:32:46;;;;;;;2.90;1.45;;;15.20;64.40;;;;;;5094015;28;20574;-69
2023/11/27 11:35:13;;;;;;;1.55;1.10;;;15.20;64.40;;;;;;5100184;28;20324;-70
2023/11/27 11:37:49;;;;;;;2.15;1.45;;;15.20;64.40;;;;;;5100460;28;20032;-67
2023/11/27 11:40:15;;;;;;;1.85;1.35;;;15.20;64.40;;;;;;5088297;28;20028;-70
2023/11/27 11:42:44;;;;;;;2.55;1.50;;;15.20;64.40;;;;;;5095753;28;20097;-70
2023/11/27 11:45:17;;;;;;;2.00;1.25;;;15.20;64.30;;;;;;5089363;28;20085;-70
2023/11/27 11:47:59;;;;;;;2.25;1.30;;;15.20;64.30;;;;;;5096449;28;20498;-65
2023/11/27 11:50:30;;;;;;;3.25;1.65;;;15.20;64.40;;;;;;5079748;28;20466;-70
2023/11/27 11:53:05;;;;;;;1.73;1.00;;;15.20;64.30;;;;;;5092975;28;20036;-65
2023/11/27 11:55:35;;;;;;;2.60;1.27;;;15.20;64.30;;;;;;5100380;28;20114;-68
2023/11/27 11:58:18;;;;;;;1.98;1.20;;;15.20;64.30;;;;;;5095226;28;20455;-67
2023/11/27 12:00:45;;;;;;;2.00;1.30;;;15.20;64.40;;;;;;5077889;28;20159;-68
2023/11/27 12:03:18;;;;;;;1.48;1.27;;;15.20;64.40;;;;;;5097412;28;20060;-70
2023/11/27 12:05:49;;;;;;;1.80;1.42;;;15.20;64.40;;;;;;5094709;28;20028;-71
2023/11/27 12:08:17;;;;;;;2.83;1.40;;;15.20;64.50;;;;;;5094972;28;20032;-71
2023/11/27 12:10:43;;;;;;;1.98;1.30;;;15.20;64.50;;;;;;5094864;28;20545;-72
2023/11/27 12:13:09;;;;;;;2.55;1.20;;;15.20;64.50;;;;;;5091741;28;20044;-70
2023/11/27 12:15:35;;;;;;;2.75;1.13;;;15.20;64.50;;;;;;5096725;28;20030;-70
2023/11/27 12:18:00;;;;;;;1.75;1.10;;;15.20;64.50;;;;;;5079581;28;20469;-70
2023/11/27 12:20:26;;;;;;;2.08;1.17;;;15.20;64.50;;;;;;5095698;28;20081;-71
2023/11/27 12:22:51;;;;;;;4.97;1.35;;;15.20;64.60;;;;;;5095497;28;20565;-70
2023/11/27 12:25:18;;;;;;;2.92;1.40;;;15.20;64.60;;;;;;5097699;28;20098;-70
2023/11/27 12:27:45;;;;;;;2.05;1.33;;;15.20;64.60;;;;;;5100319;28;20070;-72
2023/11/27 12:30:18;;;;;;;2.00;1.13;;;15.10;64.60;;;;;;5098146;28;20059;-71
2023/11/27 12:32:43;;;;;;;2.42;1.08;;;15.10;64.60;;;;;;5100683;28;20126;-70
2023/11/27 12:35:14;;;;;;;1.52;0.90;;;15.20;64.60;;;;;;5087550;28;20706;-71
2023/11/27 12:37:43;;;;;;;1.85;1.05;;;15.20;64.60;;;;;;5097441;28;20521;-70
2023/11/27 12:40:09;;;;;;;1.38;1.05;;;15.20;64.70;;;;;;5094022;28;21255;-69
2023/11/27 12:42:36;;;;;;;2.65;1.10;;;15.10;64.60;;;;;;5097849;28;20244;-72
2023/11/27 12:45:05;;;;;;;1.90;1.13;;;15.20;64.70;;;;;;5096186;28;20024;-69